• Join FlightAware (Why Join?)
  • Login
  • US Flag 
Gobble Gobble! 
06:20AM EST


 

Airport Tracker/Info


-or-


 

Live Flight TrackerFlight Track Log ✈ CTL17 ✈ 2013년 Jul 1일 ✈ KPTK - KMBS

Flight Track Log - Related Links

Times and Time Zones

All times are in EDT time to prevent confusion due to time zone crossing. See the CTL17 flight status page for this flight to view local times or setup timezone preferences in your user account.

Time Position Orientation Groundspeed Altitude Reporting Facility
EDT Latitude Longitude Course Direction KTS MPH feet Rate Location/Type
03:53PM 42.6653 -83.4014 North 117 135 1,400  Level Cleveland Center
03:55PM 42.7110 -83.4005 North  Level FlightAware Approximate
04:02PM 42.9434 -83.4144 321° Northwest  Level FlightAware Approximate
04:03PM 42.9708 -83.4445 321° Northwest  Level FlightAware Approximate
04:04PM 42.9982 -83.4747 321° Northwest  Level FlightAware Approximate
04:05PM 43.0256 -83.5049 321° Northwest  Level FlightAware Approximate
04:06PM 43.0530 -83.5351 321° Northwest  Level FlightAware Approximate
04:07PM 43.0803 -83.5654 321° Northwest  Level FlightAware Approximate
04:08PM 43.1077 -83.5957 321° Northwest  Level FlightAware Approximate
04:09PM 43.1351 -83.6260 321° Northwest  Level FlightAware Approximate
04:10PM 43.1624 -83.6563 321° Northwest  Level FlightAware Approximate
04:11PM 43.1897 -83.6867 321° Northwest  Level FlightAware Approximate
04:12PM 43.2170 -83.7171 318° Northwest  Level FlightAware Approximate
04:13PM 43.2434 -83.7492 318° Northwest  Level FlightAware Approximate
04:14PM 43.2696 -83.7813 318° Northwest  Level FlightAware Approximate
04:15PM 43.2959 -83.8134 318° Northwest  Level FlightAware Approximate
04:16PM 43.3222 -83.8455 318° Northwest  Level FlightAware Approximate
04:17PM 43.3485 -83.8777 318° Northwest  Level FlightAware Approximate
04:18PM 43.3754 -83.9087 324° Northwest  Level FlightAware Approximate
04:19PM 43.4039 -83.9372 324° Northwest  Level FlightAware Approximate
04:20PM 43.4324 -83.9656 324° Northwest  Level FlightAware Approximate
04:21PM 43.4608 -83.9941 324° Northwest  Level FlightAware Approximate
04:22PM 43.4893 -84.0226 324° Northwest  Level FlightAware Approximate
04:23PM 43.5125 -84.0582 305° West  Level FlightAware Approximate
04:24PM 43.5167 -84.0667 305° West  Level FlightAware Approximate
04:25PM 43.5329 -84.0796 305° West  Level Estimated
04:26PM 43.5329 -84.0796 305° West  Level Estimated